sensor_id;sensor_type;location;lat;lon;timestamp;pressure;altitude;pressure_sealevel;temperature;humidity
4392;BME280;2210;51.938;8.488;2022-09-27T00:02:14;98293.84;;;10.78;100.00
4392;BME280;2210;51.938;8.488;2022-09-27T00:06:32;98297.72;;;10.77;100.00
4392;BME280;2210;51.938;8.488;2022-09-27T00:10:33;98297.41;;;10.79;100.00
4392;BME280;2210;51.938;8.488;2022-09-27T00:14:33;98298.22;;;10.79;100.00
4392;BME280;2210;51.938;8.488;2022-09-27T00:18:33;98303.09;;;10.88;100.00
4392;BME280;2210;51.938;8.488;2022-09-27T00:22:34;98296.53;;;10.84;100.00
4392;BME280;2210;51.938;8.488;2022-09-27T00:26:34;98300.41;;;10.83;100.00
4392;BME280;2210;51.938;8.488;2022-09-27T00:30:40;98294.66;;;10.79;100.00
4392;BME280;2210;51.938;8.488;2022-09-27T00:34:41;98290.56;;;10.76;100.00
4392;BME280;2210;51.938;8.488;2022-09-27T00:38:41;98292.19;;;10.77;100.00
4392;BME280;2210;51.938;8.488;2022-09-27T00:42:41;98275.59;;;10.83;100.00
4392;BME280;2210;51.938;8.488;2022-09-27T00:46:46;98278.72;;;10.76;100.00
4392;BME280;2210;51.938;8.488;2022-09-27T00:50:51;98292.06;;;10.88;100.00
4392;BME280;2210;51.938;8.488;2022-09-27T00:54:58;98279.41;;;10.87;100.00
4392;BME280;2210;51.938;8.488;2022-09-27T00:59:21;98284.09;;;10.86;100.00
4392;BME280;2210;51.938;8.488;2022-09-27T01:03:58;98283.28;;;10.86;100.00
4392;BME280;2210;51.938;8.488;2022-09-27T01:07:59;98290.13;;;10.88;100.00
4392;BME280;2210;51.938;8.488;2022-09-27T01:12:06;98284.03;;;10.91;100.00
4392;BME280;2210;51.938;8.488;2022-09-27T01:30:14;98290.88;;;10.94;100.00
4392;BME280;2210;51.938;8.488;2022-09-27T01:42:49;98287.56;;;10.73;100.00
4392;BME280;2210;51.938;8.488;2022-09-27T01:47:09;98288.34;;;10.78;100.00
4392;BME280;2210;51.938;8.488;2022-09-27T01:51:21;98288.59;;;10.77;100.00
4392;BME280;2210;51.938;8.488;2022-09-27T01:55:29;98291.94;;;10.74;100.00
4392;BME280;2210;51.938;8.488;2022-09-27T01:59:35;98287.78;;;10.76;100.00
4392;BME280;2210;51.938;8.488;2022-09-27T02:03:40;98297.09;;;10.56;100.00
4392;BME280;2210;51.938;8.488;2022-09-27T02:07:54;98303.63;;;10.66;100.00
4392;BME280;2210;51.938;8.488;2022-09-27T02:12:03;98298.47;;;10.59;100.00
4392;BME280;2210;51.938;8.488;2022-09-27T02:16:19;98300.47;;;10.53;100.00
4392;BME280;2210;51.938;8.488;2022-09-27T02:24:40;98313.47;;;10.48;100.00
4392;BME280;2210;51.938;8.488;2022-09-27T02:28:56;98319.50;;;10.50;100.00
4392;BME280;2210;51.938;8.488;2022-09-27T02:32:59;98314.53;;;10.52;100.00
4392;BME280;2210;51.938;8.488;2022-09-27T02:36:59;98316.09;;;10.58;100.00
4392;BME280;2210;51.938;8.488;2022-09-27T02:41:00;98316.09;;;10.58;100.00
4392;BME280;2210;51.938;8.488;2022-09-27T02:45:02;98317.22;;;10.57;100.00
4392;BME280;2210;51.938;8.488;2022-09-27T02:49:15;98325.25;;;10.53;100.00
4392;BME280;2210;51.938;8.488;2022-09-27T02:53:49;98331.06;;;10.52;100.00
4392;BME280;2210;51.938;8.488;2022-09-27T03:02:26;98332.94;;;10.56;100.00
4392;BME280;2210;51.938;8.488;2022-09-27T03:06:31;98332.41;;;10.54;100.00
4392;BME280;2210;51.938;8.488;2022-09-27T03:10:31;98334.06;;;10.55;100.00
4392;BME280;2210;51.938;8.488;2022-09-27T03:14:32;98336.63;;;10.46;100.00
4392;BME280;2210;51.938;8.488;2022-09-27T03:18:32;98332.63;;;10.58;100.00
4392;BME280;2210;51.938;8.488;2022-09-27T03:22:33;98338.09;;;10.34;100.00
4392;BME280;2210;51.938;8.488;2022-09-27T03:26:33;98342.22;;;10.36;100.00
4392;BME280;2210;51.938;8.488;2022-09-27T03:30:34;98342.22;;;10.36;100.00
4392;BME280;2210;51.938;8.488;2022-09-27T03:34:35;98345.03;;;10.26;100.00
4392;BME280;2210;51.938;8.488;2022-09-27T03:38:35;98355.44;;;10.34;100.00
4392;BME280;2210;51.938;8.488;2022-09-27T03:42:35;98357.59;;;10.42;100.00
4392;BME280;2210;51.938;8.488;2022-09-27T03:46:36;98356.78;;;10.42;100.00
4392;BME280;2210;51.938;8.488;2022-09-27T03:50:37;98356.56;;;10.28;100.00
4392;BME280;2210;51.938;8.488;2022-09-27T03:54:37;98356.91;;;10.21;100.00
4392;BME280;2210;51.938;8.488;2022-09-27T03:58:37;98366.19;;;10.30;100.00
4392;BME280;2210;51.938;8.488;2022-09-27T04:02:38;98368.94;;;10.30;100.00
4392;BME280;2210;51.938;8.488;2022-09-27T04:06:38;98362.66;;;10.25;100.00
4392;BME280;2210;51.938;8.488;2022-09-27T04:10:38;98364.69;;;10.14;100.00
4392;BME280;2210;51.938;8.488;2022-09-27T04:14:39;98365.22;;;10.16;100.00
4392;BME280;2210;51.938;8.488;2022-09-27T04:18:39;98367.69;;;10.18;100.00
4392;BME280;2210;51.938;8.488;2022-09-27T04:22:40;98372.03;;;10.24;100.00
4392;BME280;2210;51.938;8.488;2022-09-27T04:26:41;98373.75;;;10.15;100.00
4392;BME280;2210;51.938;8.488;2022-09-27T04:30:41;98366.66;;;10.08;100.00
4392;BME280;2210;51.938;8.488;2022-09-27T04:34:41;98376.25;;;10.16;100.00
4392;BME280;2210;51.938;8.488;2022-09-27T04:39:02;98375.41;;;10.16;100.00
4392;BME280;2210;51.938;8.488;2022-09-27T04:43:03;98381.97;;;10.20;100.00
4392;BME280;2210;51.938;8.488;2022-09-27T04:47:03;98385.63;;;10.15;100.00
4392;BME280;2210;51.938;8.488;2022-09-27T04:51:04;98386.41;;;10.16;100.00
4392;BME280;2210;51.938;8.488;2022-09-27T04:55:06;98386.13;;;10.17;100.00
4392;BME280;2210;51.938;8.488;2022-09-27T04:59:08;98397.44;;;10.16;100.00
4392;BME280;2210;51.938;8.488;2022-09-27T05:03:08;98403.50;;;10.18;100.00
4392;BME280;2210;51.938;8.488;2022-09-27T05:07:08;98409.03;;;10.12;100.00
4392;BME280;2210;51.938;8.488;2022-09-27T05:11:08;98407.16;;;10.08;100.00
4392;BME280;2210;51.938;8.488;2022-09-27T05:15:09;98416.25;;;10.03;100.00
4392;BME280;2210;51.938;8.488;2022-09-27T05:19:09;98426.66;;;10.11;100.00
4392;BME280;2210;51.938;8.488;2022-09-27T05:23:09;98419.22;;;10.12;100.00
4392;BME280;2210;51.938;8.488;2022-09-27T05:27:12;98435.50;;;10.08;100.00
4392;BME280;2210;51.938;8.488;2022-09-27T05:31:17;98429.50;;;10.01;100.00
4392;BME280;2210;51.938;8.488;2022-09-27T05:35:18;98444.22;;;9.76;100.00
4392;BME280;2210;51.938;8.488;2022-09-27T05:39:18;98441.38;;;9.91;100.00
4392;BME280;2210;51.938;8.488;2022-09-27T05:43:19;98442.44;;;9.95;100.00
4392;BME280;2210;51.938;8.488;2022-09-27T05:47:20;98445.72;;;10.03;100.00
4392;BME280;2210;51.938;8.488;2022-09-27T05:51:20;98461.47;;;9.92;100.00
4392;BME280;2210;51.938;8.488;2022-09-27T05:55:21;98468.09;;;9.86;100.00
4392;BME280;2210;51.938;8.488;2022-09-27T05:59:21;98469.75;;;9.87;100.00
4392;BME280;2210;51.938;8.488;2022-09-27T06:03:21;98472.19;;;9.93;100.00
4392;BME280;2210;51.938;8.488;2022-09-27T06:07:21;98475.56;;;9.85;100.00
4392;BME280;2210;51.938;8.488;2022-09-27T06:11:22;98471.44;;;9.83;100.00
4392;BME280;2210;51.938;8.488;2022-09-27T06:15:22;98466.69;;;9.93;100.00
4392;BME280;2210;51.938;8.488;2022-09-27T06:19:22;98484.56;;;9.96;100.00
4392;BME280;2210;51.938;8.488;2022-09-27T06:23:22;98486.78;;;9.94;100.00
4392;BME280;2210;51.938;8.488;2022-09-27T06:27:23;98485.66;;;9.95;100.00
4392;BME280;2210;51.938;8.488;2022-09-27T06:31:25;98497.75;;;9.99;100.00
4392;BME280;2210;51.938;8.488;2022-09-27T06:35:26;98495.59;;;9.91;100.00
4392;BME280;2210;51.938;8.488;2022-09-27T06:39:27;98505.56;;;9.76;100.00
4392;BME280;2210;51.938;8.488;2022-09-27T06:43:28;98518.81;;;9.74;100.00
4392;BME280;2210;51.938;8.488;2022-09-27T06:47:34;98515.22;;;9.74;100.00
4392;BME280;2210;51.938;8.488;2022-09-27T06:51:35;98523.44;;;9.79;100.00
4392;BME280;2210;51.938;8.488;2022-09-27T06:55:35;98525.38;;;9.84;100.00
4392;BME280;2210;51.938;8.488;2022-09-27T06:59:35;98525.31;;;9.89;100.00
4392;BME280;2210;51.938;8.488;2022-09-27T07:03:54;98529.44;;;9.91;100.00
4392;BME280;2210;51.938;8.488;2022-09-27T07:07:55;98528.63;;;9.91;100.00
4392;BME280;2210;51.938;8.488;2022-09-27T07:11:56;98530.53;;;9.95;100.00
4392;BME280;2210;51.938;8.488;2022-09-27T07:15:57;98530.28;;;9.97;100.00
4392;BME280;2210;51.938;8.488;2022-09-27T07:19:58;98542.09;;;9.92;100.00
4392;BME280;2210;51.938;8.488;2022-09-27T07:24:01;98538.84;;;9.90;100.00
4392;BME280;2210;51.938;8.488;2022-09-27T07:28:03;98553.63;;;10.00;100.00
4392;BME280;2210;51.938;8.488;2022-09-27T07:32:03;98561.06;;;10.04;100.00
4392;BME280;2210;51.938;8.488;2022-09-27T07:36:11;98560.75;;;10.11;100.00
4392;BME280;2210;51.938;8.488;2022-09-27T07:40:12;98560.47;;;10.07;100.00
4392;BME280;2210;51.938;8.488;2022-09-27T07:44:12;98561.56;;;10.11;100.00
4392;BME280;2210;51.938;8.488;2022-09-27T07:48:15;98572.00;;;10.15;100.00
4392;BME280;2210;51.938;8.488;2022-09-27T07:52:16;98572.00;;;10.15;100.00
4392;BME280;2210;51.938;8.488;2022-09-27T07:56:16;98578.03;;;10.22;100.00
4392;BME280;2210;51.938;8.488;2022-09-27T08:00:17;98572.53;;;10.22;100.00
4392;BME280;2210;51.938;8.488;2022-09-27T08:04:18;98584.63;;;10.26;100.00
4392;BME280;2210;51.938;8.488;2022-09-27T08:08:19;98585.97;;;10.34;100.00
4392;BME280;2210;51.938;8.488;2022-09-27T08:12:20;98593.41;;;10.38;100.00
4392;BME280;2210;51.938;8.488;2022-09-27T08:16:20;98598.34;;;10.41;100.00
4392;BME280;2210;51.938;8.488;2022-09-27T08:20:21;98604.41;;;10.43;100.00
4392;BME280;2210;51.938;8.488;2022-09-27T08:24:21;98603.56;;;10.43;100.00
4392;BME280;2210;51.938;8.488;2022-09-27T08:28:21;98603.81;;;10.52;100.00
4392;BME280;2210;51.938;8.488;2022-09-27T08:32:24;98603.50;;;10.58;100.00
4392;BME280;2210;51.938;8.488;2022-09-27T08:36:24;98613.16;;;10.56;100.00
4392;BME280;2210;51.938;8.488;2022-09-27T08:40:44;98624.69;;;10.58;100.00
4392;BME280;2210;51.938;8.488;2022-09-27T08:45:04;98629.97;;;10.54;100.00
4392;BME280;2210;51.938;8.488;2022-09-27T08:49:22;98625.56;;;10.53;100.00
4392;BME280;2210;51.938;8.488;2022-09-27T08:53:40;98628.59;;;10.57;100.00
4392;BME280;2210;51.938;8.488;2022-09-27T08:57:49;98625.75;;;10.67;100.00
4392;BME280;2210;51.938;8.488;2022-09-27T09:01:52;98631.25;;;10.67;100.00
4392;BME280;2210;51.938;8.488;2022-09-27T09:06:18;98623.44;;;10.85;100.00
4392;BME280;2210;51.938;8.488;2022-09-27T09:10:52;98633.75;;;11.08;100.00
4392;BME280;2210;51.938;8.488;2022-09-27T09:15:28;98633.53;;;11.34;100.00
4392;BME280;2210;51.938;8.488;2022-09-27T09:33:40;98638.94;;;11.15;100.00
4392;BME280;2210;51.938;8.488;2022-09-27T09:37:48;98631.00;;;11.08;100.00
4392;BME280;2210;51.938;8.488;2022-09-27T09:42:09;98634.75;;;11.18;100.00
4392;BME280;2210;51.938;8.488;2022-09-27T09:46:19;98630.13;;;11.13;100.00
4392;BME280;2210;51.938;8.488;2022-09-27T09:50:24;98629.13;;;10.99;100.00
4392;BME280;2210;51.938;8.488;2022-09-27T09:54:31;98628.25;;;11.08;100.00
4392;BME280;2210;51.938;8.488;2022-09-27T10:02:45;98611.56;;;11.24;100.00
4392;BME280;2210;51.938;8.488;2022-09-27T10:06:46;98614.28;;;11.29;100.00
4392;BME280;2210;51.938;8.488;2022-09-27T10:10:47;98613.34;;;11.39;100.00
4392;BME280;2210;51.938;8.488;2022-09-27T10:14:48;98606.13;;;11.43;100.00
4392;BME280;2210;51.938;8.488;2022-09-27T10:18:52;98615.53;;;11.42;100.00
4392;BME280;2210;51.938;8.488;2022-09-27T10:23:18;98609.63;;;11.54;100.00
4392;BME280;2210;51.938;8.488;2022-09-27T10:27:20;98613.53;;;11.47;100.00
4392;BME280;2210;51.938;8.488;2022-09-27T10:31:21;98629.72;;;11.30;100.00
4392;BME280;2210;51.938;8.488;2022-09-27T10:39:28;98651.41;;;9.82;100.00
4392;BME280;2210;51.938;8.488;2022-09-27T10:43:44;98638.50;;;9.61;100.00
4392;BME280;2210;51.938;8.488;2022-09-27T10:47:44;98644.81;;;9.77;100.00
4392;BME280;2210;51.938;8.488;2022-09-27T10:56:45;98641.91;;;10.24;100.00
4392;BME280;2210;51.938;8.488;2022-09-27T11:06:28;98627.22;;;10.54;100.00
4392;BME280;2210;51.938;8.488;2022-09-27T11:15:29;98621.81;;;11.47;100.00
4392;BME280;2210;51.938;8.488;2022-09-27T11:19:57;98625.75;;;11.41;100.00
4392;BME280;2210;51.938;8.488;2022-09-27T11:28:53;98621.47;;;11.25;100.00
4392;BME280;2210;51.938;8.488;2022-09-27T11:33:31;98628.63;;;10.91;100.00
4392;BME280;2210;51.938;8.488;2022-09-27T11:42:23;98637.28;;;11.43;100.00
4392;BME280;2210;51.938;8.488;2022-09-27T11:46:29;98630.44;;;11.70;100.00
4392;BME280;2210;51.938;8.488;2022-09-27T11:55:28;98635.00;;;12.09;100.00
4392;BME280;2210;51.938;8.488;2022-09-27T12:12:50;98631.56;;;11.93;100.00
4392;BME280;2210;51.938;8.488;2022-09-27T12:16:53;98628.22;;;11.72;100.00
4392;BME280;2210;51.938;8.488;2022-09-27T12:20:55;98632.72;;;11.63;100.00
4392;BME280;2210;51.938;8.488;2022-09-27T12:24:57;98628.72;;;11.74;100.00
4392;BME280;2210;51.938;8.488;2022-09-27T12:41:50;98617.59;;;12.33;100.00
4392;BME280;2210;51.938;8.488;2022-09-27T12:51:14;98619.44;;;11.94;100.00
4392;BME280;2210;51.938;8.488;2022-09-27T12:55:40;98632.38;;;11.70;100.00
4392;BME280;2210;51.938;8.488;2022-09-27T13:00:03;98623.34;;;11.64;100.00
4392;BME280;2210;51.938;8.488;2022-09-27T13:04:51;98622.91;;;11.52;100.00
4392;BME280;2210;51.938;8.488;2022-09-27T13:13:24;98611.53;;;11.82;100.00
4392;BME280;2210;51.938;8.488;2022-09-27T13:21:55;98613.63;;;11.91;100.00
4392;BME280;2210;51.938;8.488;2022-09-27T13:26:42;98612.41;;;12.07;100.00
4392;BME280;2210;51.938;8.488;2022-09-27T13:30:46;98614.03;;;12.08;100.00
4392;BME280;2210;51.938;8.488;2022-09-27T13:34:55;98610.06;;;11.90;100.00
4392;BME280;2210;51.938;8.488;2022-09-27T13:47:24;98629.28;;;11.47;100.00
4392;BME280;2210;51.938;8.488;2022-09-27T13:51:34;98631.84;;;11.38;100.00
4392;BME280;2210;51.938;8.488;2022-09-27T13:55:52;98630.19;;;11.37;100.00
4392;BME280;2210;51.938;8.488;2022-09-27T13:59:55;98626.34;;;11.38;100.00
4392;BME280;2210;51.938;8.488;2022-09-27T14:12:44;98622.41;;;11.74;100.00
4392;BME280;2210;51.938;8.488;2022-09-27T14:16:44;98623.47;;;11.78;100.00
4392;BME280;2210;51.938;8.488;2022-09-27T14:21:10;98618.28;;;11.71;100.00
4392;BME280;2210;51.938;8.488;2022-09-27T14:25:21;98616.13;;;11.68;100.00
4392;BME280;2210;51.938;8.488;2022-09-27T14:34:06;98623.84;;;11.66;100.00
4392;BME280;2210;51.938;8.488;2022-09-27T14:38:16;98619.22;;;11.61;100.00
4392;BME280;2210;51.938;8.488;2022-09-27T14:42:35;98623.06;;;11.60;100.00
4392;BME280;2210;51.938;8.488;2022-09-27T14:51:29;98628.00;;;11.63;100.00
4392;BME280;2210;51.938;8.488;2022-09-27T14:55:30;98643.50;;;11.59;100.00
4392;BME280;2210;51.938;8.488;2022-09-27T14:59:34;98657.59;;;11.58;100.00
4392;BME280;2210;51.938;8.488;2022-09-27T15:03:35;98648.84;;;11.51;100.00
4392;BME280;2210;51.938;8.488;2022-09-27T15:07:39;98652.47;;;11.46;100.00
4392;BME280;2210;51.938;8.488;2022-09-27T15:11:40;98656.91;;;11.42;100.00
4392;BME280;2210;51.938;8.488;2022-09-27T15:15:41;98656.91;;;11.42;100.00
4392;BME280;2210;51.938;8.488;2022-09-27T15:19:55;98663.88;;;11.34;100.00
4392;BME280;2210;51.938;8.488;2022-09-27T15:23:56;98659.19;;;11.35;100.00
4392;BME280;2210;51.938;8.488;2022-09-27T15:28:11;98676.38;;;11.21;100.00
4392;BME280;2210;51.938;8.488;2022-09-27T15:32:16;98675.03;;;11.19;100.00
4392;BME280;2210;51.938;8.488;2022-09-27T15:36:51;98669.59;;;11.08;100.00
4392;BME280;2210;51.938;8.488;2022-09-27T15:44:54;98669.00;;;11.17;100.00
4392;BME280;2210;51.938;8.488;2022-09-27T15:57:34;98674.59;;;11.01;100.00
4392;BME280;2210;51.938;8.488;2022-09-27T16:01:34;98679.00;;;11.02;100.00
4392;BME280;2210;51.938;8.488;2022-09-27T16:05:34;98680.38;;;11.05;100.00
4392;BME280;2210;51.938;8.488;2022-09-27T16:09:34;98679.75;;;11.13;100.00
4392;BME280;2210;51.938;8.488;2022-09-27T16:13:35;98685.00;;;11.14;100.00
4392;BME280;2210;51.938;8.488;2022-09-27T16:17:35;98694.47;;;10.98;100.00
4392;BME280;2210;51.938;8.488;2022-09-27T16:21:37;98688.16;;;10.98;100.00
4392;BME280;2210;51.938;8.488;2022-09-27T16:25:38;98689.09;;;10.77;100.00
4392;BME280;2210;51.938;8.488;2022-09-27T16:29:39;98685.81;;;10.70;100.00
4392;BME280;2210;51.938;8.488;2022-09-27T16:33:40;98700.72;;;10.69;100.00
4392;BME280;2210;51.938;8.488;2022-09-27T16:37:41;98691.84;;;10.77;100.00
4392;BME280;2210;51.938;8.488;2022-09-27T16:41:41;98693.53;;;10.73;100.00
4392;BME280;2210;51.938;8.488;2022-09-27T16:45:42;98696.19;;;10.84;100.00
4392;BME280;2210;51.938;8.488;2022-09-27T16:49:42;98699.56;;;10.75;100.00
4392;BME280;2210;51.938;8.488;2022-09-27T16:54:02;98696.88;;;10.65;100.00
4392;BME280;2210;51.938;8.488;2022-09-27T16:58:04;98703.50;;;10.59;100.00
4392;BME280;2210;51.938;8.488;2022-09-27T17:02:08;98695.78;;;10.61;100.00
4392;BME280;2210;51.938;8.488;2022-09-27T17:06:08;98694.13;;;10.60;100.00
4392;BME280;2210;51.938;8.488;2022-09-27T17:10:08;98696.34;;;10.58;100.00
4392;BME280;2210;51.938;8.488;2022-09-27T17:14:10;98693.63;;;10.48;100.00
4392;BME280;2210;51.938;8.488;2022-09-27T17:18:13;98695.59;;;10.42;100.00
4392;BME280;2210;51.938;8.488;2022-09-27T17:22:15;98697.22;;;10.43;100.00
4392;BME280;2210;51.938;8.488;2022-09-27T17:26:20;98696.16;;;10.34;100.00
4392;BME280;2210;51.938;8.488;2022-09-27T17:30:21;98696.97;;;10.39;100.00
4392;BME280;2210;51.938;8.488;2022-09-27T17:34:21;98699.16;;;10.32;100.00
4392;BME280;2210;51.938;8.488;2022-09-27T17:38:22;98695.88;;;10.25;100.00
4392;BME280;2210;51.938;8.488;2022-09-27T17:42:22;98697.03;;;10.19;100.00
4392;BME280;2210;51.938;8.488;2022-09-27T17:46:35;98693.94;;;10.30;100.00
4392;BME280;2210;51.938;8.488;2022-09-27T17:50:35;98698.91;;;10.28;100.00
4392;BME280;2210;51.938;8.488;2022-09-27T17:54:36;98695.88;;;10.25;100.00
4392;BME280;2210;51.938;8.488;2022-09-27T17:58:37;98696.44;;;10.27;100.00
4392;BME280;2210;51.938;8.488;2022-09-27T18:02:38;98695.38;;;10.23;100.00
4392;BME280;2210;51.938;8.488;2022-09-27T18:06:40;98692.03;;;10.26;100.00
4392;BME280;2210;51.938;8.488;2022-09-27T18:10:40;98695.88;;;10.25;100.00
4392;BME280;2210;51.938;8.488;2022-09-27T18:14:44;98694.28;;;10.19;100.00
4392;BME280;2210;51.938;8.488;2022-09-27T18:18:46;98702.56;;;10.08;100.00
4392;BME280;2210;51.938;8.488;2022-09-27T18:31:11;98692.69;;;9.87;100.00
4392;BME280;2210;51.938;8.488;2022-09-27T18:35:11;98704.22;;;9.89;100.00
4392;BME280;2210;51.938;8.488;2022-09-27T18:39:13;98698.75;;;9.84;100.00
4392;BME280;2210;51.938;8.488;2022-09-27T19:23:30;98702.88;;;9.66;100.00
4392;BME280;2210;51.938;8.488;2022-09-27T19:27:30;98700.41;;;9.64;100.00
4392;BME280;2210;51.938;8.488;2022-09-27T19:31:34;98685.84;;;9.64;100.00
4392;BME280;2210;51.938;8.488;2022-09-27T19:35:34;98697.38;;;9.66;100.00
4392;BME280;2210;51.938;8.488;2022-09-27T19:39:35;98702.34;;;9.69;100.00
4392;BME280;2210;51.938;8.488;2022-09-27T19:43:35;98700.97;;;9.66;100.00
4392;BME280;2210;51.938;8.488;2022-09-27T19:47:35;98696.56;;;9.65;100.00
4392;BME280;2210;51.938;8.488;2022-09-27T19:51:35;98703.16;;;9.64;100.00
4392;BME280;2210;51.938;8.488;2022-09-27T19:55:36;98699.06;;;9.56;100.00
4392;BME280;2210;51.938;8.488;2022-09-27T19:59:36;98696.03;;;9.58;100.00
4392;BME280;2210;51.938;8.488;2022-09-27T20:03:39;98688.88;;;9.67;100.00
4392;BME280;2210;51.938;8.488;2022-09-27T20:07:42;98680.63;;;9.52;100.00
4392;BME280;2210;51.938;8.488;2022-09-27T20:11:44;98684.19;;;9.57;100.00
4392;BME280;2210;51.938;8.488;2022-09-27T20:15:45;98683.91;;;9.59;100.00
4392;BME280;2210;51.938;8.488;2022-09-27T20:19:57;98686.69;;;9.49;100.00
4392;BME280;2210;51.938;8.488;2022-09-27T20:23:58;98682.28;;;9.48;100.00
4392;BME280;2210;51.938;8.488;2022-09-27T20:28:02;98677.06;;;9.46;100.00
4392;BME280;2210;51.938;8.488;2022-09-27T20:32:03;98687.25;;;9.45;100.00
4392;BME280;2210;51.938;8.488;2022-09-27T20:36:05;98679.25;;;9.39;100.00
4392;BME280;2210;51.938;8.488;2022-09-27T20:40:05;98661.94;;;9.23;100.00
4392;BME280;2210;51.938;8.488;2022-09-27T20:44:12;98660.81;;;9.29;100.00
4392;BME280;2210;51.938;8.488;2022-09-27T20:48:12;98660.81;;;9.34;100.00
4392;BME280;2210;51.938;8.488;2022-09-27T20:52:13;98667.13;;;9.40;100.00
4392;BME280;2210;51.938;8.488;2022-09-27T20:56:15;98662.22;;;9.26;100.00
4392;BME280;2210;51.938;8.488;2022-09-27T21:00:16;98669.09;;;9.24;100.00
4392;BME280;2210;51.938;8.488;2022-09-27T21:04:19;98670.72;;;9.30;100.00
4392;BME280;2210;51.938;8.488;2022-09-27T21:08:21;98669.09;;;9.24;100.00
4392;BME280;2210;51.938;8.488;2022-09-27T21:12:21;98666.31;;;9.14;100.00
4392;BME280;2210;51.938;8.488;2022-09-27T21:16:23;98659.72;;;9.09;100.00
4392;BME280;2210;51.938;8.488;2022-09-27T21:20:24;98657.78;;;9.10;100.00
4392;BME280;2210;51.938;8.488;2022-09-27T21:24:24;98653.94;;;9.06;100.00
4392;BME280;2210;51.938;8.488;2022-09-27T21:28:25;98654.78;;;9.11;100.00
4392;BME280;2210;51.938;8.488;2022-09-27T21:32:25;98651.75;;;9.13;100.00
4392;BME280;2210;51.938;8.488;2022-09-27T21:36:28;98647.06;;;9.08;100.00
4392;BME280;2210;51.938;8.488;2022-09-27T21:40:28;98647.91;;;9.09;100.00
4392;BME280;2210;51.938;8.488;2022-09-27T21:44:30;98649.81;;;8.88;100.00
4392;BME280;2210;51.938;8.488;2022-09-27T21:48:31;98637.72;;;8.89;100.00
4392;BME280;2210;51.938;8.488;2022-09-27T21:52:32;98639.09;;;9.02;100.00
4392;BME280;2210;51.938;8.488;2022-09-27T21:56:34;98638.28;;;9.06;100.00
4392;BME280;2210;51.938;8.488;2022-09-27T22:00:38;98639.09;;;9.12;100.00
4392;BME280;2210;51.938;8.488;2022-09-27T22:04:48;98641.56;;;9.14;100.00
4392;BME280;2210;51.938;8.488;2022-09-27T22:08:50;98637.75;;;9.15;100.00
4392;BME280;2210;51.938;8.488;2022-09-27T22:12:51;98627.28;;;9.17;100.00
4392;BME280;2210;51.938;8.488;2022-09-27T22:16:51;98630.31;;;9.00;100.00
4392;BME280;2210;51.938;8.488;2022-09-27T22:20:51;98620.13;;;8.95;100.00
4392;BME280;2210;51.938;8.488;2022-09-27T22:24:51;98623.97;;;8.99;100.00
4392;BME280;2210;51.938;8.488;2022-09-27T22:28:51;98629.22;;;8.96;100.00
4392;BME280;2210;51.938;8.488;2022-09-27T22:32:52;98631.41;;;9.04;100.00
4392;BME280;2210;51.938;8.488;2022-09-27T22:36:52;98621.78;;;9.01;100.00
4392;BME280;2210;51.938;8.488;2022-09-27T22:40:57;98620.16;;;9.10;100.00
4392;BME280;2210;51.938;8.488;2022-09-27T22:44:57;98615.16;;;9.07;100.00
4392;BME280;2210;51.938;8.488;2022-09-27T22:48:58;98612.44;;;9.02;100.00
4392;BME280;2210;51.938;8.488;2022-09-27T22:52:58;98605.31;;;9.06;100.00
4392;BME280;2210;51.938;8.488;2022-09-27T22:56:58;98600.91;;;9.05;100.00
4392;BME280;2210;51.938;8.488;2022-09-27T23:01:06;98598.16;;;9.05;100.00
4392;BME280;2210;51.938;8.488;2022-09-27T23:05:06;98592.91;;;8.99;100.00
4392;BME280;2210;51.938;8.488;2022-09-27T23:09:08;98590.72;;;8.90;100.00
4392;BME280;2210;51.938;8.488;2022-09-27T23:13:08;98589.34;;;8.93;100.00
4392;BME280;2210;51.938;8.488;2022-09-27T23:17:09;98579.44;;;8.87;100.00
4392;BME280;2210;51.938;8.488;2022-09-27T23:21:11;98577.81;;;8.86;100.00
4392;BME280;2210;51.938;8.488;2022-09-27T23:34:10;98569.59;;;8.86;100.00
4392;BME280;2210;51.938;8.488;2022-09-27T23:38:11;98567.38;;;8.88;100.00
4392;BME280;2210;51.938;8.488;2022-09-27T23:42:16;98557.47;;;8.82;100.00
4392;BME280;2210;51.938;8.488;2022-09-27T23:46:17;98556.34;;;8.77;100.00
4392;BME280;2210;51.938;8.488;2022-09-27T23:50:17;98552.25;;;8.80;100.00
4392;BME280;2210;51.938;8.488;2022-09-27T23:54:20;98543.75;;;8.76;100.00
4392;BME280;2210;51.938;8.488;2022-09-27T23:58:20;98535.50;;;8.71;100.00
